sensor_id;sensor_type;location;lat;lon;timestamp;temperature;humidity
20242;DHT22;10279;46.388;8.116;2023-10-19T00:00:49;14.10;99.90
20242;DHT22;10279;46.388;8.116;2023-10-19T00:03:18;14.10;99.90
20242;DHT22;10279;46.388;8.116;2023-10-19T00:05:46;14.10;99.90
20242;DHT22;10279;46.388;8.116;2023-10-19T00:08:14;14.20;99.90
20242;DHT22;10279;46.388;8.116;2023-10-19T00:10:50;14.30;99.90
20242;DHT22;10279;46.388;8.116;2023-10-19T00:13:32;14.30;99.90
20242;DHT22;10279;46.388;8.116;2023-10-19T00:15:59;14.20;99.90
20242;DHT22;10279;46.388;8.116;2023-10-19T00:18:26;14.20;99.90
20242;DHT22;10279;46.388;8.116;2023-10-19T00:20:55;14.20;99.90
20242;DHT22;10279;46.388;8.116;2023-10-19T00:23:40;14.20;99.90
20242;DHT22;10279;46.388;8.116;2023-10-19T00:26:07;14.10;99.90
20242;DHT22;10279;46.388;8.116;2023-10-19T00:28:44;14.20;99.90
20242;DHT22;10279;46.388;8.116;2023-10-19T00:31:13;14.20;99.90
20242;DHT22;10279;46.388;8.116;2023-10-19T00:33:41;14.10;99.90
20242;DHT22;10279;46.388;8.116;2023-10-19T00:36:08;14.20;99.90
20242;DHT22;10279;46.388;8.116;2023-10-19T00:38:41;14.10;99.90
20242;DHT22;10279;46.388;8.116;2023-10-19T00:41:21;14.00;99.90
20242;DHT22;10279;46.388;8.116;2023-10-19T00:43:51;14.00;99.90
20242;DHT22;10279;46.388;8.116;2023-10-19T00:46:25;14.00;99.90
20242;DHT22;10279;46.388;8.116;2023-10-19T00:49:21;14.00;99.90
20242;DHT22;10279;46.388;8.116;2023-10-19T00:51:56;14.00;99.90
20242;DHT22;10279;46.388;8.116;2023-10-19T00:54:34;13.90;99.90
20242;DHT22;10279;46.388;8.116;2023-10-19T00:57:08;13.90;99.90
20242;DHT22;10279;46.388;8.116;2023-10-19T00:59:40;13.90;99.90
20242;DHT22;10279;46.388;8.116;2023-10-19T01:02:21;13.90;99.90
20242;DHT22;10279;46.388;8.116;2023-10-19T01:04:53;13.80;99.90
20242;DHT22;10279;46.388;8.116;2023-10-19T01:07:29;13.80;99.90
20242;DHT22;10279;46.388;8.116;2023-10-19T01:10:01;13.80;99.90
20242;DHT22;10279;46.388;8.116;2023-10-19T01:12:32;13.70;99.90
20242;DHT22;10279;46.388;8.116;2023-10-19T01:17:34;13.70;99.90
20242;DHT22;10279;46.388;8.116;2023-10-19T01:20:07;13.70;99.90
20242;DHT22;10279;46.388;8.116;2023-10-19T01:28:29;13.60;99.90
20242;DHT22;10279;46.388;8.116;2023-10-19T01:31:14;13.60;99.90
20242;DHT22;10279;46.388;8.116;2023-10-19T01:33:44;13.60;99.90
20242;DHT22;10279;46.388;8.116;2023-10-19T01:36:12;13.70;99.90
20242;DHT22;10279;46.388;8.116;2023-10-19T01:39:02;13.70;99.90
20242;DHT22;10279;46.388;8.116;2023-10-19T01:41:37;13.70;99.90
20242;DHT22;10279;46.388;8.116;2023-10-19T01:44:04;13.60;99.90
20242;DHT22;10279;46.388;8.116;2023-10-19T01:46:34;13.60;99.90
20242;DHT22;10279;46.388;8.116;2023-10-19T01:49:04;13.60;99.90
20242;DHT22;10279;46.388;8.116;2023-10-19T01:51:34;13.60;99.90
20242;DHT22;10279;46.388;8.116;2023-10-19T01:54:10;13.60;99.90
20242;DHT22;10279;46.388;8.116;2023-10-19T01:56:38;13.60;99.90
20242;DHT22;10279;46.388;8.116;2023-10-19T01:59:09;13.60;99.90
20242;DHT22;10279;46.388;8.116;2023-10-19T02:01:36;13.60;99.90
20242;DHT22;10279;46.388;8.116;2023-10-19T02:04:05;13.60;99.90
20242;DHT22;10279;46.388;8.116;2023-10-19T02:06:36;13.60;99.90
20242;DHT22;10279;46.388;8.116;2023-10-19T02:09:12;13.60;99.90
20242;DHT22;10279;46.388;8.116;2023-10-19T02:11:59;13.60;99.90
20242;DHT22;10279;46.388;8.116;2023-10-19T02:14:28;13.60;99.90
20242;DHT22;10279;46.388;8.116;2023-10-19T02:16:57;13.60;99.90
20242;DHT22;10279;46.388;8.116;2023-10-19T02:19:27;13.50;99.90
20242;DHT22;10279;46.388;8.116;2023-10-19T02:22:00;13.50;99.90
20242;DHT22;10279;46.388;8.116;2023-10-19T02:24:30;13.50;99.90
20242;DHT22;10279;46.388;8.116;2023-10-19T02:26:58;13.50;99.90
20242;DHT22;10279;46.388;8.116;2023-10-19T02:29:28;13.60;99.90
20242;DHT22;10279;46.388;8.116;2023-10-19T02:31:55;13.60;99.90
20242;DHT22;10279;46.388;8.116;2023-10-19T02:34:24;13.60;99.90
20242;DHT22;10279;46.388;8.116;2023-10-19T02:36:52;13.60;99.90
20242;DHT22;10279;46.388;8.116;2023-10-19T02:39:20;13.60;99.90
20242;DHT22;10279;46.388;8.116;2023-10-19T02:41:52;13.60;99.90
20242;DHT22;10279;46.388;8.116;2023-10-19T02:44:21;13.60;99.90
20242;DHT22;10279;46.388;8.116;2023-10-19T02:47:15;13.50;99.90
20242;DHT22;10279;46.388;8.116;2023-10-19T02:49:44;13.50;99.90
20242;DHT22;10279;46.388;8.116;2023-10-19T02:52:22;13.40;99.90
20242;DHT22;10279;46.388;8.116;2023-10-19T02:54:50;13.40;99.90
20242;DHT22;10279;46.388;8.116;2023-10-19T02:57:17;13.40;99.90
20242;DHT22;10279;46.388;8.116;2023-10-19T02:59:46;13.40;99.90
20242;DHT22;10279;46.388;8.116;2023-10-19T03:02:14;13.40;99.90
20242;DHT22;10279;46.388;8.116;2023-10-19T03:04:41;13.40;99.90
20242;DHT22;10279;46.388;8.116;2023-10-19T03:07:10;13.50;99.90
20242;DHT22;10279;46.388;8.116;2023-10-19T03:09:39;13.50;99.90
20242;DHT22;10279;46.388;8.116;2023-10-19T03:12:07;13.50;99.90
20242;DHT22;10279;46.388;8.116;2023-10-19T03:14:38;13.50;99.90
20242;DHT22;10279;46.388;8.116;2023-10-19T03:17:05;13.50;99.90
20242;DHT22;10279;46.388;8.116;2023-10-19T03:19:36;13.50;99.90
20242;DHT22;10279;46.388;8.116;2023-10-19T03:22:03;13.50;99.90
20242;DHT22;10279;46.388;8.116;2023-10-19T03:24:33;13.50;99.90
20242;DHT22;10279;46.388;8.116;2023-10-19T03:27:12;13.50;99.90
20242;DHT22;10279;46.388;8.116;2023-10-19T03:29:41;13.60;99.90
20242;DHT22;10279;46.388;8.116;2023-10-19T03:32:15;13.60;99.90
20242;DHT22;10279;46.388;8.116;2023-10-19T03:34:48;13.60;99.90
20242;DHT22;10279;46.388;8.116;2023-10-19T03:37:18;13.50;99.90
20242;DHT22;10279;46.388;8.116;2023-10-19T03:39:48;13.50;99.90
20242;DHT22;10279;46.388;8.116;2023-10-19T03:42:15;13.40;99.90
20242;DHT22;10279;46.388;8.116;2023-10-19T03:44:43;13.40;99.90
20242;DHT22;10279;46.388;8.116;2023-10-19T03:47:17;13.40;99.90
20242;DHT22;10279;46.388;8.116;2023-10-19T03:49:52;13.40;99.90
20242;DHT22;10279;46.388;8.116;2023-10-19T03:52:20;13.40;99.90
20242;DHT22;10279;46.388;8.116;2023-10-19T03:54:48;13.30;99.90
20242;DHT22;10279;46.388;8.116;2023-10-19T03:57:18;13.30;99.90
20242;DHT22;10279;46.388;8.116;2023-10-19T03:59:51;13.40;99.90
20242;DHT22;10279;46.388;8.116;2023-10-19T04:02:25;13.40;99.90
20242;DHT22;10279;46.388;8.116;2023-10-19T04:04:54;13.40;99.90
20242;DHT22;10279;46.388;8.116;2023-10-19T04:07:23;13.40;99.90
20242;DHT22;10279;46.388;8.116;2023-10-19T04:09:55;13.40;99.90
20242;DHT22;10279;46.388;8.116;2023-10-19T04:12:35;13.40;99.90
20242;DHT22;10279;46.388;8.116;2023-10-19T04:15:05;13.40;99.90
20242;DHT22;10279;46.388;8.116;2023-10-19T04:17:46;13.40;99.90
20242;DHT22;10279;46.388;8.116;2023-10-19T04:20:16;13.40;99.90
20242;DHT22;10279;46.388;8.116;2023-10-19T04:22:50;13.40;99.90
20242;DHT22;10279;46.388;8.116;2023-10-19T04:25:18;13.40;99.90
20242;DHT22;10279;46.388;8.116;2023-10-19T04:27:47;13.40;99.90
20242;DHT22;10279;46.388;8.116;2023-10-19T04:30:19;13.50;99.90
20242;DHT22;10279;46.388;8.116;2023-10-19T04:32:50;13.50;99.90
20242;DHT22;10279;46.388;8.116;2023-10-19T04:35:18;13.50;99.90
20242;DHT22;10279;46.388;8.116;2023-10-19T04:37:52;13.40;99.90
20242;DHT22;10279;46.388;8.116;2023-10-19T04:40:22;13.40;99.90
20242;DHT22;10279;46.388;8.116;2023-10-19T04:42:56;13.50;99.90
20242;DHT22;10279;46.388;8.116;2023-10-19T04:45:24;13.40;99.90
20242;DHT22;10279;46.388;8.116;2023-10-19T04:47:52;13.40;99.90
20242;DHT22;10279;46.388;8.116;2023-10-19T04:50:20;13.40;99.90
20242;DHT22;10279;46.388;8.116;2023-10-19T04:52:47;13.40;99.90
20242;DHT22;10279;46.388;8.116;2023-10-19T04:55:15;13.40;99.90
20242;DHT22;10279;46.388;8.116;2023-10-19T04:57:42;13.40;99.90
20242;DHT22;10279;46.388;8.116;2023-10-19T05:00:10;13.40;99.90
20242;DHT22;10279;46.388;8.116;2023-10-19T05:02:42;13.40;99.90
20242;DHT22;10279;46.388;8.116;2023-10-19T05:05:10;13.40;99.90
20242;DHT22;10279;46.388;8.116;2023-10-19T05:07:37;13.30;99.90
20242;DHT22;10279;46.388;8.116;2023-10-19T05:10:05;13.30;99.90
20242;DHT22;10279;46.388;8.116;2023-10-19T05:12:33;13.30;99.90
20242;DHT22;10279;46.388;8.116;2023-10-19T05:15:00;13.30;99.90
20242;DHT22;10279;46.388;8.116;2023-10-19T05:17:27;13.30;99.90
20242;DHT22;10279;46.388;8.116;2023-10-19T05:19:55;13.30;99.90
20242;DHT22;10279;46.388;8.116;2023-10-19T05:22:24;13.30;99.90
20242;DHT22;10279;46.388;8.116;2023-10-19T05:24:56;13.30;99.90
20242;DHT22;10279;46.388;8.116;2023-10-19T05:27:24;13.30;99.90
20242;DHT22;10279;46.388;8.116;2023-10-19T05:29:52;13.40;99.90
20242;DHT22;10279;46.388;8.116;2023-10-19T05:32:19;13.40;99.90
20242;DHT22;10279;46.388;8.116;2023-10-19T05:34:47;13.40;99.90
20242;DHT22;10279;46.388;8.116;2023-10-19T05:37:14;13.40;99.90
20242;DHT22;10279;46.388;8.116;2023-10-19T05:39:43;13.40;99.90
20242;DHT22;10279;46.388;8.116;2023-10-19T05:42:11;13.40;99.90
20242;DHT22;10279;46.388;8.116;2023-10-19T05:44:38;13.40;99.90
20242;DHT22;10279;46.388;8.116;2023-10-19T05:47:06;13.40;99.90
20242;DHT22;10279;46.388;8.116;2023-10-19T05:49:34;13.40;99.90
20242;DHT22;10279;46.388;8.116;2023-10-19T05:52:01;13.40;99.90
20242;DHT22;10279;46.388;8.116;2023-10-19T05:54:30;13.40;99.90
20242;DHT22;10279;46.388;8.116;2023-10-19T05:56:58;13.40;99.90
20242;DHT22;10279;46.388;8.116;2023-10-19T05:59:25;13.40;99.90
20242;DHT22;10279;46.388;8.116;2023-10-19T06:01:53;13.40;99.90
20242;DHT22;10279;46.388;8.116;2023-10-19T06:04:21;13.40;99.90
20242;DHT22;10279;46.388;8.116;2023-10-19T06:06:49;13.50;99.90
20242;DHT22;10279;46.388;8.116;2023-10-19T06:09:16;13.50;99.90
20242;DHT22;10279;46.388;8.116;2023-10-19T06:11:45;13.50;99.90
20242;DHT22;10279;46.388;8.116;2023-10-19T06:14:12;13.50;99.90
20242;DHT22;10279;46.388;8.116;2023-10-19T06:16:40;13.40;99.90
20242;DHT22;10279;46.388;8.116;2023-10-19T06:19:08;13.50;99.90
20242;DHT22;10279;46.388;8.116;2023-10-19T06:21:36;13.50;99.90
20242;DHT22;10279;46.388;8.116;2023-10-19T06:24:04;13.60;99.90
20242;DHT22;10279;46.388;8.116;2023-10-19T06:26:31;13.60;99.90
20242;DHT22;10279;46.388;8.116;2023-10-19T06:28:59;13.50;99.90
20242;DHT22;10279;46.388;8.116;2023-10-19T06:31:27;13.50;99.90
20242;DHT22;10279;46.388;8.116;2023-10-19T06:33:57;13.50;99.90
20242;DHT22;10279;46.388;8.116;2023-10-19T06:36:25;13.60;99.90
20242;DHT22;10279;46.388;8.116;2023-10-19T06:38:52;13.60;99.90
20242;DHT22;10279;46.388;8.116;2023-10-19T06:41:22;13.60;99.90
20242;DHT22;10279;46.388;8.116;2023-10-19T06:43:49;13.60;99.90
20242;DHT22;10279;46.388;8.116;2023-10-19T06:46:17;13.60;99.90
20242;DHT22;10279;46.388;8.116;2023-10-19T06:48:45;13.60;99.90
20242;DHT22;10279;46.388;8.116;2023-10-19T06:51:12;13.60;99.90
20242;DHT22;10279;46.388;8.116;2023-10-19T06:53:39;13.60;99.90
20242;DHT22;10279;46.388;8.116;2023-10-19T06:56:08;13.60;99.90
20242;DHT22;10279;46.388;8.116;2023-10-19T06:58:35;13.60;99.90
20242;DHT22;10279;46.388;8.116;2023-10-19T07:01:07;13.60;99.90
20242;DHT22;10279;46.388;8.116;2023-10-19T07:03:36;13.60;99.90
20242;DHT22;10279;46.388;8.116;2023-10-19T07:06:04;13.70;99.90
20242;DHT22;10279;46.388;8.116;2023-10-19T07:08:40;13.70;99.90
20242;DHT22;10279;46.388;8.116;2023-10-19T07:11:10;13.80;99.90
20242;DHT22;10279;46.388;8.116;2023-10-19T07:13:37;13.80;99.90
20242;DHT22;10279;46.388;8.116;2023-10-19T07:16:10;13.80;99.90
20242;DHT22;10279;46.388;8.116;2023-10-19T07:18:38;13.80;99.90
20242;DHT22;10279;46.388;8.116;2023-10-19T07:21:06;13.80;99.90
20242;DHT22;10279;46.388;8.116;2023-10-19T07:23:36;13.80;99.90
20242;DHT22;10279;46.388;8.116;2023-10-19T07:26:07;13.80;99.90
20242;DHT22;10279;46.388;8.116;2023-10-19T07:28:35;13.80;99.90
20242;DHT22;10279;46.388;8.116;2023-10-19T07:31:05;13.90;99.90
20242;DHT22;10279;46.388;8.116;2023-10-19T07:33:42;13.90;99.90
20242;DHT22;10279;46.388;8.116;2023-10-19T07:36:13;13.90;99.90
20242;DHT22;10279;46.388;8.116;2023-10-19T07:38:45;13.80;99.90
20242;DHT22;10279;46.388;8.116;2023-10-19T07:41:14;13.80;99.90
20242;DHT22;10279;46.388;8.116;2023-10-19T07:43:42;13.80;99.90
20242;DHT22;10279;46.388;8.116;2023-10-19T07:46:11;13.80;99.90
20242;DHT22;10279;46.388;8.116;2023-10-19T07:48:39;13.80;99.90
20242;DHT22;10279;46.388;8.116;2023-10-19T07:51:08;13.90;99.90
20242;DHT22;10279;46.388;8.116;2023-10-19T07:53:38;13.90;99.90
20242;DHT22;10279;46.388;8.116;2023-10-19T07:56:05;14.00;99.90
20242;DHT22;10279;46.388;8.116;2023-10-19T07:58:33;14.00;99.90
20242;DHT22;10279;46.388;8.116;2023-10-19T08:01:01;14.00;99.90
20242;DHT22;10279;46.388;8.116;2023-10-19T08:03:28;14.10;99.90
20242;DHT22;10279;46.388;8.116;2023-10-19T08:05:56;14.10;99.90
20242;DHT22;10279;46.388;8.116;2023-10-19T08:08:24;14.10;99.90
20242;DHT22;10279;46.388;8.116;2023-10-19T08:10:51;14.20;99.90
20242;DHT22;10279;46.388;8.116;2023-10-19T08:13:19;14.30;99.90
20242;DHT22;10279;46.388;8.116;2023-10-19T08:15:46;14.30;99.90
20242;DHT22;10279;46.388;8.116;2023-10-19T08:18:13;14.40;99.90
20242;DHT22;10279;46.388;8.116;2023-10-19T08:20:42;14.40;99.90
20242;DHT22;10279;46.388;8.116;2023-10-19T08:23:12;14.40;99.90
20242;DHT22;10279;46.388;8.116;2023-10-19T08:25:50;14.40;99.90
20242;DHT22;10279;46.388;8.116;2023-10-19T08:28:24;14.50;99.90
20242;DHT22;10279;46.388;8.116;2023-10-19T08:30:52;14.60;99.90
20242;DHT22;10279;46.388;8.116;2023-10-19T08:33:28;14.60;99.90
20242;DHT22;10279;46.388;8.116;2023-10-19T08:35:57;14.70;99.90
20242;DHT22;10279;46.388;8.116;2023-10-19T08:38:25;14.80;99.90
20242;DHT22;10279;46.388;8.116;2023-10-19T08:40:53;14.80;99.90
20242;DHT22;10279;46.388;8.116;2023-10-19T08:43:22;14.90;99.90
20242;DHT22;10279;46.388;8.116;2023-10-19T08:45:52;14.90;99.90
20242;DHT22;10279;46.388;8.116;2023-10-19T08:48:20;15.00;99.90
20242;DHT22;10279;46.388;8.116;2023-10-19T08:50:48;15.00;99.90
20242;DHT22;10279;46.388;8.116;2023-10-19T08:53:17;15.10;99.90
20242;DHT22;10279;46.388;8.116;2023-10-19T08:55:47;15.10;99.90
20242;DHT22;10279;46.388;8.116;2023-10-19T08:58:19;15.10;99.90
20242;DHT22;10279;46.388;8.116;2023-10-19T09:00:50;15.10;99.90
20242;DHT22;10279;46.388;8.116;2023-10-19T09:03:24;15.20;99.90
20242;DHT22;10279;46.388;8.116;2023-10-19T09:05:53;15.30;99.90
20242;DHT22;10279;46.388;8.116;2023-10-19T09:08:21;15.30;99.90
20242;DHT22;10279;46.388;8.116;2023-10-19T09:10:50;15.40;99.90
20242;DHT22;10279;46.388;8.116;2023-10-19T09:13:23;15.40;99.90
20242;DHT22;10279;46.388;8.116;2023-10-19T09:15:52;15.50;99.90
20242;DHT22;10279;46.388;8.116;2023-10-19T09:18:25;15.50;99.90
20242;DHT22;10279;46.388;8.116;2023-10-19T09:20:57;15.60;99.90
20242;DHT22;10279;46.388;8.116;2023-10-19T09:23:35;15.60;99.90
20242;DHT22;10279;46.388;8.116;2023-10-19T09:26:04;15.70;99.90
20242;DHT22;10279;46.388;8.116;2023-10-19T09:28:37;15.70;99.90
20242;DHT22;10279;46.388;8.116;2023-10-19T09:31:06;15.70;99.90
20242;DHT22;10279;46.388;8.116;2023-10-19T09:33:40;15.80;99.90
20242;DHT22;10279;46.388;8.116;2023-10-19T09:36:09;15.70;99.90
20242;DHT22;10279;46.388;8.116;2023-10-19T09:38:44;15.70;99.90
20242;DHT22;10279;46.388;8.116;2023-10-19T09:41:17;15.80;99.90
20242;DHT22;10279;46.388;8.116;2023-10-19T09:43:46;15.90;99.90
20242;DHT22;10279;46.388;8.116;2023-10-19T09:46:26;15.90;99.90
20242;DHT22;10279;46.388;8.116;2023-10-19T09:48:56;16.00;99.90
20242;DHT22;10279;46.388;8.116;2023-10-19T09:51:24;16.10;99.90
20242;DHT22;10279;46.388;8.116;2023-10-19T09:54:02;16.10;99.90
20242;DHT22;10279;46.388;8.116;2023-10-19T09:56:38;16.20;99.90
20242;DHT22;10279;46.388;8.116;2023-10-19T09:59:33;16.30;99.90
20242;DHT22;10279;46.388;8.116;2023-10-19T10:02:10;16.40;99.90
20242;DHT22;10279;46.388;8.116;2023-10-19T10:04:42;16.50;99.90
20242;DHT22;10279;46.388;8.116;2023-10-19T10:07:14;16.40;99.90
20242;DHT22;10279;46.388;8.116;2023-10-19T10:10:03;16.50;99.90
20242;DHT22;10279;46.388;8.116;2023-10-19T10:12:31;16.50;99.90
20242;DHT22;10279;46.388;8.116;2023-10-19T10:15:06;16.50;99.90
20242;DHT22;10279;46.388;8.116;2023-10-19T10:17:38;16.40;99.90
20242;DHT22;10279;46.388;8.116;2023-10-19T10:22:42;16.30;99.90
20242;DHT22;10279;46.388;8.116;2023-10-19T10:25:30;16.40;99.90
20242;DHT22;10279;46.388;8.116;2023-10-19T10:27:59;16.40;99.90
20242;DHT22;10279;46.388;8.116;2023-10-19T10:30:26;16.30;99.90
20242;DHT22;10279;46.388;8.116;2023-10-19T10:32:55;16.30;99.90
20242;DHT22;10279;46.388;8.116;2023-10-19T10:38:10;16.30;99.90
20242;DHT22;10279;46.388;8.116;2023-10-19T10:40:49;16.40;99.90
20242;DHT22;10279;46.388;8.116;2023-10-19T10:43:18;16.40;99.90
20242;DHT22;10279;46.388;8.116;2023-10-19T10:45:45;16.50;99.90
20242;DHT22;10279;46.388;8.116;2023-10-19T10:48:17;16.50;99.90
20242;DHT22;10279;46.388;8.116;2023-10-19T10:50:44;16.60;99.90
20242;DHT22;10279;46.388;8.116;2023-10-19T10:53:14;16.60;99.90
20242;DHT22;10279;46.388;8.116;2023-10-19T10:55:42;16.60;99.90
20242;DHT22;10279;46.388;8.116;2023-10-19T10:58:18;16.60;99.90
20242;DHT22;10279;46.388;8.116;2023-10-19T11:00:46;16.70;99.90
20242;DHT22;10279;46.388;8.116;2023-10-19T11:03:15;16.70;99.90
20242;DHT22;10279;46.388;8.116;2023-10-19T11:05:43;16.70;99.90
20242;DHT22;10279;46.388;8.116;2023-10-19T11:08:16;16.70;99.90
20242;DHT22;10279;46.388;8.116;2023-10-19T11:10:46;16.80;99.90
20242;DHT22;10279;46.388;8.116;2023-10-19T11:13:23;16.80;99.90
20242;DHT22;10279;46.388;8.116;2023-10-19T11:15:56;16.90;99.90
20242;DHT22;10279;46.388;8.116;2023-10-19T11:18:35;16.90;99.90
20242;DHT22;10279;46.388;8.116;2023-10-19T11:21:07;16.90;99.90
20242;DHT22;10279;46.388;8.116;2023-10-19T11:23:45;16.90;99.90
20242;DHT22;10279;46.388;8.116;2023-10-19T11:26:16;16.90;99.90
20242;DHT22;10279;46.388;8.116;2023-10-19T11:28:43;16.80;99.90
20242;DHT22;10279;46.388;8.116;2023-10-19T11:31:22;16.80;99.90
20242;DHT22;10279;46.388;8.116;2023-10-19T11:33:51;16.80;99.90
20242;DHT22;10279;46.388;8.116;2023-10-19T11:36:20;16.80;99.90
20242;DHT22;10279;46.388;8.116;2023-10-19T11:38:50;16.80;99.90
20242;DHT22;10279;46.388;8.116;2023-10-19T11:41:21;16.80;99.90
20242;DHT22;10279;46.388;8.116;2023-10-19T11:43:50;16.80;99.90
20242;DHT22;10279;46.388;8.116;2023-10-19T11:46:18;16.90;99.90
20242;DHT22;10279;46.388;8.116;2023-10-19T11:48:45;17.00;99.90
20242;DHT22;10279;46.388;8.116;2023-10-19T11:51:14;16.90;99.90
20242;DHT22;10279;46.388;8.116;2023-10-19T11:53:42;17.00;99.90
20242;DHT22;10279;46.388;8.116;2023-10-19T11:56:11;17.10;99.90
20242;DHT22;10279;46.388;8.116;2023-10-19T11:58:43;17.20;99.90
20242;DHT22;10279;46.388;8.116;2023-10-19T12:01:14;17.20;99.90
20242;DHT22;10279;46.388;8.116;2023-10-19T12:03:45;17.20;99.90
20242;DHT22;10279;46.388;8.116;2023-10-19T12:06:14;17.30;99.90
20242;DHT22;10279;46.388;8.116;2023-10-19T12:08:51;17.40;99.90
20242;DHT22;10279;46.388;8.116;2023-10-19T12:11:18;17.50;99.90
20242;DHT22;10279;46.388;8.116;2023-10-19T12:13:47;17.50;99.90
20242;DHT22;10279;46.388;8.116;2023-10-19T12:16:15;17.50;99.90
20242;DHT22;10279;46.388;8.116;2023-10-19T12:18:45;17.60;99.90
20242;DHT22;10279;46.388;8.116;2023-10-19T12:21:13;17.60;99.90
20242;DHT22;10279;46.388;8.116;2023-10-19T12:23:43;17.70;99.90
20242;DHT22;10279;46.388;8.116;2023-10-19T12:26:11;18.00;99.90
20242;DHT22;10279;46.388;8.116;2023-10-19T12:28:40;18.50;99.90
20242;DHT22;10279;46.388;8.116;2023-10-19T12:31:08;18.60;99.90
20242;DHT22;10279;46.388;8.116;2023-10-19T12:33:39;18.60;99.90
20242;DHT22;10279;46.388;8.116;2023-10-19T12:36:08;18.70;99.90
20242;DHT22;10279;46.388;8.116;2023-10-19T12:38:54;18.90;99.90
20242;DHT22;10279;46.388;8.116;2023-10-19T12:41:22;19.20;99.90
20242;DHT22;10279;46.388;8.116;2023-10-19T12:43:51;19.50;99.90
20242;DHT22;10279;46.388;8.116;2023-10-19T12:46:20;19.60;99.90
20242;DHT22;10279;46.388;8.116;2023-10-19T12:48:52;19.60;99.90
20242;DHT22;10279;46.388;8.116;2023-10-19T12:51:22;19.40;99.90
20242;DHT22;10279;46.388;8.116;2023-10-19T12:53:51;19.20;99.90
20242;DHT22;10279;46.388;8.116;2023-10-19T12:56:22;19.10;99.90
20242;DHT22;10279;46.388;8.116;2023-10-19T12:58:56;19.00;99.90
20242;DHT22;10279;46.388;8.116;2023-10-19T13:01:23;19.00;99.90
20242;DHT22;10279;46.388;8.116;2023-10-19T13:03:51;18.90;99.90
20242;DHT22;10279;46.388;8.116;2023-10-19T13:06:19;18.80;99.90
20242;DHT22;10279;46.388;8.116;2023-10-19T13:08:47;18.80;99.90
20242;DHT22;10279;46.388;8.116;2023-10-19T13:11:14;18.70;99.90
20242;DHT22;10279;46.388;8.116;2023-10-19T13:13:45;18.70;99.90
20242;DHT22;10279;46.388;8.116;2023-10-19T13:16:15;18.70;99.90
20242;DHT22;10279;46.388;8.116;2023-10-19T13:18:43;18.70;99.90
20242;DHT22;10279;46.388;8.116;2023-10-19T13:21:11;18.80;99.90
20242;DHT22;10279;46.388;8.116;2023-10-19T13:23:44;18.70;99.90
20242;DHT22;10279;46.388;8.116;2023-10-19T13:26:12;18.70;99.90
20242;DHT22;10279;46.388;8.116;2023-10-19T13:28:44;18.80;99.90
20242;DHT22;10279;46.388;8.116;2023-10-19T13:31:12;19.20;99.90
20242;DHT22;10279;46.388;8.116;2023-10-19T13:33:46;19.60;99.90
20242;DHT22;10279;46.388;8.116;2023-10-19T13:36:14;20.00;99.90
20242;DHT22;10279;46.388;8.116;2023-10-19T13:38:43;20.40;99.90
20242;DHT22;10279;46.388;8.116;2023-10-19T13:41:11;20.40;99.90
20242;DHT22;10279;46.388;8.116;2023-10-19T13:43:41;20.50;99.90
20242;DHT22;10279;46.388;8.116;2023-10-19T13:46:09;20.60;99.90
20242;DHT22;10279;46.388;8.116;2023-10-19T13:48:37;20.50;99.90
20242;DHT22;10279;46.388;8.116;2023-10-19T13:51:07;20.40;99.90
20242;DHT22;10279;46.388;8.116;2023-10-19T13:53:44;20.20;99.90
20242;DHT22;10279;46.388;8.116;2023-10-19T13:56:14;19.90;99.90
20242;DHT22;10279;46.388;8.116;2023-10-19T13:58:42;19.70;99.90
20242;DHT22;10279;46.388;8.116;2023-10-19T14:01:10;19.40;99.90
20242;DHT22;10279;46.388;8.116;2023-10-19T14:03:39;19.20;99.90
20242;DHT22;10279;46.388;8.116;2023-10-19T14:06:12;19.10;99.90
20242;DHT22;10279;46.388;8.116;2023-10-19T14:08:41;19.00;99.90
20242;DHT22;10279;46.388;8.116;2023-10-19T14:11:09;18.90;99.90
20242;DHT22;10279;46.388;8.116;2023-10-19T14:13:36;18.80;99.90
20242;DHT22;10279;46.388;8.116;2023-10-19T14:16:07;18.60;99.90
20242;DHT22;10279;46.388;8.116;2023-10-19T14:18:39;18.50;99.90
20242;DHT22;10279;46.388;8.116;2023-10-19T14:21:17;18.50;99.90
20242;DHT22;10279;46.388;8.116;2023-10-19T14:23:45;18.40;99.90
20242;DHT22;10279;46.388;8.116;2023-10-19T14:26:13;18.50;99.90
20242;DHT22;10279;46.388;8.116;2023-10-19T14:28:41;18.40;99.90
20242;DHT22;10279;46.388;8.116;2023-10-19T14:31:09;18.30;99.90
20242;DHT22;10279;46.388;8.116;2023-10-19T14:33:38;18.30;99.90
20242;DHT22;10279;46.388;8.116;2023-10-19T14:36:06;18.20;99.90
20242;DHT22;10279;46.388;8.116;2023-10-19T14:38:33;18.10;99.90
20242;DHT22;10279;46.388;8.116;2023-10-19T14:41:03;18.10;99.90
20242;DHT22;10279;46.388;8.116;2023-10-19T14:43:30;18.10;99.90
20242;DHT22;10279;46.388;8.116;2023-10-19T14:45:58;18.10;99.90
20242;DHT22;10279;46.388;8.116;2023-10-19T14:48:25;18.10;99.90
20242;DHT22;10279;46.388;8.116;2023-10-19T14:50:56;18.10;99.90
20242;DHT22;10279;46.388;8.116;2023-10-19T14:53:24;18.00;99.90
20242;DHT22;10279;46.388;8.116;2023-10-19T14:55:54;17.90;99.90
20242;DHT22;10279;46.388;8.116;2023-10-19T14:58:21;17.90;99.90
20242;DHT22;10279;46.388;8.116;2023-10-19T15:00:48;17.80;99.90
20242;DHT22;10279;46.388;8.116;2023-10-19T15:03:22;17.80;99.90
20242;DHT22;10279;46.388;8.116;2023-10-19T15:05:51;17.80;99.90
20242;DHT22;10279;46.388;8.116;2023-10-19T15:08:20;17.70;99.90
20242;DHT22;10279;46.388;8.116;2023-10-19T15:10:50;17.70;99.90
20242;DHT22;10279;46.388;8.116;2023-10-19T15:13:18;17.60;99.90
20242;DHT22;10279;46.388;8.116;2023-10-19T15:15:45;17.60;99.90
20242;DHT22;10279;46.388;8.116;2023-10-19T15:18:13;17.70;99.90
20242;DHT22;10279;46.388;8.116;2023-10-19T15:20:40;17.60;99.90
20242;DHT22;10279;46.388;8.116;2023-10-19T15:23:08;17.60;99.90
20242;DHT22;10279;46.388;8.116;2023-10-19T15:25:37;17.60;99.90
20242;DHT22;10279;46.388;8.116;2023-10-19T15:28:07;17.60;99.90
20242;DHT22;10279;46.388;8.116;2023-10-19T15:30:36;17.50;99.90
20242;DHT22;10279;46.388;8.116;2023-10-19T15:33:04;17.40;99.90
20242;DHT22;10279;46.388;8.116;2023-10-19T15:35:32;17.40;99.90
20242;DHT22;10279;46.388;8.116;2023-10-19T15:38:03;17.30;99.90
20242;DHT22;10279;46.388;8.116;2023-10-19T15:40:32;17.30;99.90
20242;DHT22;10279;46.388;8.116;2023-10-19T15:42:59;17.20;99.90
20242;DHT22;10279;46.388;8.116;2023-10-19T15:45:29;17.10;99.90
20242;DHT22;10279;46.388;8.116;2023-10-19T15:47:59;17.20;99.90
20242;DHT22;10279;46.388;8.116;2023-10-19T15:50:28;17.10;99.90
20242;DHT22;10279;46.388;8.116;2023-10-19T15:52:56;17.10;99.90
20242;DHT22;10279;46.388;8.116;2023-10-19T15:55:23;17.10;99.90
20242;DHT22;10279;46.388;8.116;2023-10-19T15:57:51;17.10;99.90
20242;DHT22;10279;46.388;8.116;2023-10-19T16:00:19;17.10;99.90
20242;DHT22;10279;46.388;8.116;2023-10-19T16:02:49;17.10;99.90